sensor_id;sensor_type;location;lat;lon;timestamp;temperature;humidity
10344;DHT22;5217;43.960;10.954;2023-06-04T00:01:09;21.90;99.90
10344;DHT22;5217;43.960;10.954;2023-06-04T00:03:42;21.90;99.90
10344;DHT22;5217;43.960;10.954;2023-06-04T00:06:11;21.80;99.90
10344;DHT22;5217;43.960;10.954;2023-06-04T00:08:40;21.80;99.90
10344;DHT22;5217;43.960;10.954;2023-06-04T00:11:08;21.80;99.90
10344;DHT22;5217;43.960;10.954;2023-06-04T00:13:36;21.70;99.90
10344;DHT22;5217;43.960;10.954;2023-06-04T00:16:05;21.70;99.90
10344;DHT22;5217;43.960;10.954;2023-06-04T00:18:35;21.70;99.90
10344;DHT22;5217;43.960;10.954;2023-06-04T00:21:03;21.70;99.90
10344;DHT22;5217;43.960;10.954;2023-06-04T00:23:32;21.70;99.90
10344;DHT22;5217;43.960;10.954;2023-06-04T00:26:00;21.70;99.90
10344;DHT22;5217;43.960;10.954;2023-06-04T00:28:29;21.70;99.90
10344;DHT22;5217;43.960;10.954;2023-06-04T00:30:57;21.70;99.90
10344;DHT22;5217;43.960;10.954;2023-06-04T00:33:25;21.70;99.90
10344;DHT22;5217;43.960;10.954;2023-06-04T00:35:55;21.60;99.90
10344;DHT22;5217;43.960;10.954;2023-06-04T00:38:24;21.60;99.90
10344;DHT22;5217;43.960;10.954;2023-06-04T00:40:52;21.60;99.90
10344;DHT22;5217;43.960;10.954;2023-06-04T00:43:21;21.60;99.90
10344;DHT22;5217;43.960;10.954;2023-06-04T00:45:52;21.60;99.90
10344;DHT22;5217;43.960;10.954;2023-06-04T00:48:21;21.60;99.90
10344;DHT22;5217;43.960;10.954;2023-06-04T00:50:50;21.60;99.90
10344;DHT22;5217;43.960;10.954;2023-06-04T00:53:21;21.50;99.90
10344;DHT22;5217;43.960;10.954;2023-06-04T00:55:51;21.50;99.90
10344;DHT22;5217;43.960;10.954;2023-06-04T00:58:19;21.50;99.90
10344;DHT22;5217;43.960;10.954;2023-06-04T01:00:48;21.50;99.90
10344;DHT22;5217;43.960;10.954;2023-06-04T01:03:19;21.50;99.90
10344;DHT22;5217;43.960;10.954;2023-06-04T01:05:54;21.50;99.90
10344;DHT22;5217;43.960;10.954;2023-06-04T01:08:27;21.50;99.90
10344;DHT22;5217;43.960;10.954;2023-06-04T01:10:57;21.50;99.90
10344;DHT22;5217;43.960;10.954;2023-06-04T01:13:25;21.50;99.90
10344;DHT22;5217;43.960;10.954;2023-06-04T01:15:54;21.40;99.90
10344;DHT22;5217;43.960;10.954;2023-06-04T01:18:26;21.40;99.90
10344;DHT22;5217;43.960;10.954;2023-06-04T01:20:58;21.40;99.90
10344;DHT22;5217;43.960;10.954;2023-06-04T01:23:34;21.40;99.90
10344;DHT22;5217;43.960;10.954;2023-06-04T01:26:06;21.40;99.90
10344;DHT22;5217;43.960;10.954;2023-06-04T01:28:35;21.40;99.90
10344;DHT22;5217;43.960;10.954;2023-06-04T01:31:04;21.40;99.90
10344;DHT22;5217;43.960;10.954;2023-06-04T01:33:35;21.40;99.90
10344;DHT22;5217;43.960;10.954;2023-06-04T01:36:04;21.30;99.90
10344;DHT22;5217;43.960;10.954;2023-06-04T01:38:34;21.30;99.90
10344;DHT22;5217;43.960;10.954;2023-06-04T01:41:02;21.30;99.90
10344;DHT22;5217;43.960;10.954;2023-06-04T01:43:31;21.30;99.90
10344;DHT22;5217;43.960;10.954;2023-06-04T01:46:02;21.30;99.90
10344;DHT22;5217;43.960;10.954;2023-06-04T01:48:30;21.30;99.90
10344;DHT22;5217;43.960;10.954;2023-06-04T01:51:00;21.30;99.90
10344;DHT22;5217;43.960;10.954;2023-06-04T01:53:29;21.20;99.90
10344;DHT22;5217;43.960;10.954;2023-06-04T01:55:59;21.20;99.90
10344;DHT22;5217;43.960;10.954;2023-06-04T01:58:28;21.20;99.90
10344;DHT22;5217;43.960;10.954;2023-06-04T02:00:59;21.20;99.90
10344;DHT22;5217;43.960;10.954;2023-06-04T02:03:30;21.20;99.90
10344;DHT22;5217;43.960;10.954;2023-06-04T02:06:04;21.20;99.90
10344;DHT22;5217;43.960;10.954;2023-06-04T02:08:34;21.10;99.90
10344;DHT22;5217;43.960;10.954;2023-06-04T02:11:04;21.10;99.90
10344;DHT22;5217;43.960;10.954;2023-06-04T02:13:33;21.10;99.90
10344;DHT22;5217;43.960;10.954;2023-06-04T02:16:03;21.10;99.90
10344;DHT22;5217;43.960;10.954;2023-06-04T02:18:31;21.10;99.90
10344;DHT22;5217;43.960;10.954;2023-06-04T02:20:59;21.10;99.90
10344;DHT22;5217;43.960;10.954;2023-06-04T02:23:28;21.00;99.90
10344;DHT22;5217;43.960;10.954;2023-06-04T02:25:56;21.10;99.90
10344;DHT22;5217;43.960;10.954;2023-06-04T02:28:26;21.00;99.90
10344;DHT22;5217;43.960;10.954;2023-06-04T02:30:54;21.00;99.90
10344;DHT22;5217;43.960;10.954;2023-06-04T02:33:23;21.00;99.90
10344;DHT22;5217;43.960;10.954;2023-06-04T02:35:51;21.00;99.90
10344;DHT22;5217;43.960;10.954;2023-06-04T02:38:20;21.00;99.90
10344;DHT22;5217;43.960;10.954;2023-06-04T02:40:48;21.00;99.90
10344;DHT22;5217;43.960;10.954;2023-06-04T02:43:16;21.00;99.90
10344;DHT22;5217;43.960;10.954;2023-06-04T02:45:46;21.00;99.90
10344;DHT22;5217;43.960;10.954;2023-06-04T02:48:15;21.00;99.90
10344;DHT22;5217;43.960;10.954;2023-06-04T02:50:43;21.00;99.90
10344;DHT22;5217;43.960;10.954;2023-06-04T02:53:11;21.00;99.90
10344;DHT22;5217;43.960;10.954;2023-06-04T02:55:40;20.90;99.90
10344;DHT22;5217;43.960;10.954;2023-06-04T02:58:09;20.90;99.90
10344;DHT22;5217;43.960;10.954;2023-06-04T03:00:37;20.90;99.90
10344;DHT22;5217;43.960;10.954;2023-06-04T03:03:08;20.90;99.90
10344;DHT22;5217;43.960;10.954;2023-06-04T03:05:37;20.90;99.90
10344;DHT22;5217;43.960;10.954;2023-06-04T03:08:06;20.90;99.90
10344;DHT22;5217;43.960;10.954;2023-06-04T03:10:35;20.90;99.90
10344;DHT22;5217;43.960;10.954;2023-06-04T03:13:04;20.90;99.90
10344;DHT22;5217;43.960;10.954;2023-06-04T03:15:32;20.90;99.90
10344;DHT22;5217;43.960;10.954;2023-06-04T03:18:00;20.80;99.90
10344;DHT22;5217;43.960;10.954;2023-06-04T03:20:30;20.80;99.90
10344;DHT22;5217;43.960;10.954;2023-06-04T03:23:05;20.90;99.90
10344;DHT22;5217;43.960;10.954;2023-06-04T03:25:34;20.80;99.90
10344;DHT22;5217;43.960;10.954;2023-06-04T03:28:02;20.80;99.90
10344;DHT22;5217;43.960;10.954;2023-06-04T03:30:30;20.80;99.90
10344;DHT22;5217;43.960;10.954;2023-06-04T03:32:59;20.80;99.90
10344;DHT22;5217;43.960;10.954;2023-06-04T03:35:27;20.80;99.90
10344;DHT22;5217;43.960;10.954;2023-06-04T03:37:57;20.80;99.90
10344;DHT22;5217;43.960;10.954;2023-06-04T03:40:26;20.70;99.90
10344;DHT22;5217;43.960;10.954;2023-06-04T03:42:54;20.80;99.90
10344;DHT22;5217;43.960;10.954;2023-06-04T03:45:22;20.80;99.90
10344;DHT22;5217;43.960;10.954;2023-06-04T03:47:51;20.80;99.90
10344;DHT22;5217;43.960;10.954;2023-06-04T03:50:19;20.70;99.90
10344;DHT22;5217;43.960;10.954;2023-06-04T03:52:48;20.70;99.90
10344;DHT22;5217;43.960;10.954;2023-06-04T03:55:17;20.70;99.90
10344;DHT22;5217;43.960;10.954;2023-06-04T03:57:46;20.70;99.90
10344;DHT22;5217;43.960;10.954;2023-06-04T04:00:15;20.70;99.90
10344;DHT22;5217;43.960;10.954;2023-06-04T04:02:44;20.70;99.90
10344;DHT22;5217;43.960;10.954;2023-06-04T04:05:12;20.70;99.90
10344;DHT22;5217;43.960;10.954;2023-06-04T04:07:43;20.70;99.90
10344;DHT22;5217;43.960;10.954;2023-06-04T04:10:11;20.70;99.90
10344;DHT22;5217;43.960;10.954;2023-06-04T04:12:41;20.70;99.90
10344;DHT22;5217;43.960;10.954;2023-06-04T04:15:10;20.70;99.90
10344;DHT22;5217;43.960;10.954;2023-06-04T04:17:38;20.70;99.90
10344;DHT22;5217;43.960;10.954;2023-06-04T04:20:07;20.70;99.90
10344;DHT22;5217;43.960;10.954;2023-06-04T04:22:39;20.70;99.90
10344;DHT22;5217;43.960;10.954;2023-06-04T04:25:08;20.70;99.90
10344;DHT22;5217;43.960;10.954;2023-06-04T04:27:37;20.60;99.90
10344;DHT22;5217;43.960;10.954;2023-06-04T04:30:10;20.70;99.90
10344;DHT22;5217;43.960;10.954;2023-06-04T04:32:41;20.70;99.90
10344;DHT22;5217;43.960;10.954;2023-06-04T04:35:16;20.60;99.90
10344;DHT22;5217;43.960;10.954;2023-06-04T04:37:45;20.60;99.90
10344;DHT22;5217;43.960;10.954;2023-06-04T04:40:14;20.60;99.90
10344;DHT22;5217;43.960;10.954;2023-06-04T04:42:42;20.60;99.90
10344;DHT22;5217;43.960;10.954;2023-06-04T04:45:12;20.60;99.90
10344;DHT22;5217;43.960;10.954;2023-06-04T04:47:40;20.60;99.90
10344;DHT22;5217;43.960;10.954;2023-06-04T04:50:09;20.60;99.90
10344;DHT22;5217;43.960;10.954;2023-06-04T04:52:38;20.60;99.90
10344;DHT22;5217;43.960;10.954;2023-06-04T04:55:07;20.60;99.90
10344;DHT22;5217;43.960;10.954;2023-06-04T04:57:36;20.60;99.90
10344;DHT22;5217;43.960;10.954;2023-06-04T05:00:08;20.60;99.90
10344;DHT22;5217;43.960;10.954;2023-06-04T05:02:38;20.60;99.90
10344;DHT22;5217;43.960;10.954;2023-06-04T05:05:07;20.60;99.90
10344;DHT22;5217;43.960;10.954;2023-06-04T05:07:37;20.60;99.90
10344;DHT22;5217;43.960;10.954;2023-06-04T05:10:06;20.70;99.90
10344;DHT22;5217;43.960;10.954;2023-06-04T05:12:35;20.60;99.90
10344;DHT22;5217;43.960;10.954;2023-06-04T05:15:04;20.60;99.90
10344;DHT22;5217;43.960;10.954;2023-06-04T05:17:32;20.60;99.90
10344;DHT22;5217;43.960;10.954;2023-06-04T05:20:05;20.60;99.90
10344;DHT22;5217;43.960;10.954;2023-06-04T05:22:33;20.60;99.90
10344;DHT22;5217;43.960;10.954;2023-06-04T05:25:04;20.60;99.90
10344;DHT22;5217;43.960;10.954;2023-06-04T05:27:33;20.60;99.90
10344;DHT22;5217;43.960;10.954;2023-06-04T05:30:02;20.60;99.90
10344;DHT22;5217;43.960;10.954;2023-06-04T05:32:30;20.60;99.90
10344;DHT22;5217;43.960;10.954;2023-06-04T05:34:59;20.70;99.90
10344;DHT22;5217;43.960;10.954;2023-06-04T05:37:33;20.70;99.90
10344;DHT22;5217;43.960;10.954;2023-06-04T05:40:02;20.70;99.90
10344;DHT22;5217;43.960;10.954;2023-06-04T05:42:32;20.70;99.90
10344;DHT22;5217;43.960;10.954;2023-06-04T05:45:00;20.70;99.90
10344;DHT22;5217;43.960;10.954;2023-06-04T05:47:29;20.70;99.90
10344;DHT22;5217;43.960;10.954;2023-06-04T05:49:58;20.70;99.90
10344;DHT22;5217;43.960;10.954;2023-06-04T05:52:26;20.70;99.90
10344;DHT22;5217;43.960;10.954;2023-06-04T05:54:56;20.70;99.90
10344;DHT22;5217;43.960;10.954;2023-06-04T05:57:24;20.70;99.90
10344;DHT22;5217;43.960;10.954;2023-06-04T05:59:53;20.70;99.90
10344;DHT22;5217;43.960;10.954;2023-06-04T06:02:21;20.70;99.90
10344;DHT22;5217;43.960;10.954;2023-06-04T06:04:50;20.70;99.90
10344;DHT22;5217;43.960;10.954;2023-06-04T06:07:18;20.70;99.90
10344;DHT22;5217;43.960;10.954;2023-06-04T06:09:47;20.70;99.90
10344;DHT22;5217;43.960;10.954;2023-06-04T06:12:16;20.70;99.90
10344;DHT22;5217;43.960;10.954;2023-06-04T06:14:45;20.80;99.90
10344;DHT22;5217;43.960;10.954;2023-06-04T06:17:13;20.70;99.90
10344;DHT22;5217;43.960;10.954;2023-06-04T06:19:41;20.70;99.90
10344;DHT22;5217;43.960;10.954;2023-06-04T06:22:10;20.70;99.90
10344;DHT22;5217;43.960;10.954;2023-06-04T06:24:39;20.80;99.90
10344;DHT22;5217;43.960;10.954;2023-06-04T06:27:08;20.80;99.90
10344;DHT22;5217;43.960;10.954;2023-06-04T06:29:38;20.80;99.90
10344;DHT22;5217;43.960;10.954;2023-06-04T06:32:08;20.80;99.90
10344;DHT22;5217;43.960;10.954;2023-06-04T06:34:36;20.80;99.90
10344;DHT22;5217;43.960;10.954;2023-06-04T06:37:06;20.80;99.90
10344;DHT22;5217;43.960;10.954;2023-06-04T06:39:34;20.90;99.90
10344;DHT22;5217;43.960;10.954;2023-06-04T06:42:03;20.90;99.90
10344;DHT22;5217;43.960;10.954;2023-06-04T06:44:32;20.90;99.90
10344;DHT22;5217;43.960;10.954;2023-06-04T06:47:01;21.00;99.90
10344;DHT22;5217;43.960;10.954;2023-06-04T06:49:30;21.00;99.90
10344;DHT22;5217;43.960;10.954;2023-06-04T06:51:58;21.00;99.90
10344;DHT22;5217;43.960;10.954;2023-06-04T06:54:26;21.10;99.90
10344;DHT22;5217;43.960;10.954;2023-06-04T06:56:55;21.10;99.90
10344;DHT22;5217;43.960;10.954;2023-06-04T06:59:25;21.10;99.90
10344;DHT22;5217;43.960;10.954;2023-06-04T07:01:53;21.10;99.90
10344;DHT22;5217;43.960;10.954;2023-06-04T07:04:23;21.10;99.90
10344;DHT22;5217;43.960;10.954;2023-06-04T07:06:51;21.10;99.90
10344;DHT22;5217;43.960;10.954;2023-06-04T07:09:20;21.10;99.90
10344;DHT22;5217;43.960;10.954;2023-06-04T07:11:48;21.20;99.90
10344;DHT22;5217;43.960;10.954;2023-06-04T07:14:17;21.20;99.90
10344;DHT22;5217;43.960;10.954;2023-06-04T07:16:45;21.30;99.90
10344;DHT22;5217;43.960;10.954;2023-06-04T07:19:14;21.30;99.90
10344;DHT22;5217;43.960;10.954;2023-06-04T07:21:43;21.30;99.90
10344;DHT22;5217;43.960;10.954;2023-06-04T07:24:12;21.30;99.90
10344;DHT22;5217;43.960;10.954;2023-06-04T07:26:40;21.30;99.90
10344;DHT22;5217;43.960;10.954;2023-06-04T07:29:09;21.40;99.90
10344;DHT22;5217;43.960;10.954;2023-06-04T07:31:37;21.40;99.90
10344;DHT22;5217;43.960;10.954;2023-06-04T07:34:05;21.40;99.90
10344;DHT22;5217;43.960;10.954;2023-06-04T07:36:34;21.40;99.90
10344;DHT22;5217;43.960;10.954;2023-06-04T07:39:04;21.40;99.90
10344;DHT22;5217;43.960;10.954;2023-06-04T07:41:33;21.40;99.90
10344;DHT22;5217;43.960;10.954;2023-06-04T07:44:01;21.50;99.90
10344;DHT22;5217;43.960;10.954;2023-06-04T07:46:30;21.50;99.90
10344;DHT22;5217;43.960;10.954;2023-06-04T07:48:58;21.50;99.90
10344;DHT22;5217;43.960;10.954;2023-06-04T07:51:26;21.50;99.90
10344;DHT22;5217;43.960;10.954;2023-06-04T07:53:55;21.60;99.90
10344;DHT22;5217;43.960;10.954;2023-06-04T07:56:24;21.60;99.90
10344;DHT22;5217;43.960;10.954;2023-06-04T07:58:53;21.60;99.90
10344;DHT22;5217;43.960;10.954;2023-06-04T08:01:22;21.60;99.90
10344;DHT22;5217;43.960;10.954;2023-06-04T08:03:50;21.70;99.90
10344;DHT22;5217;43.960;10.954;2023-06-04T08:06:19;21.70;99.90
10344;DHT22;5217;43.960;10.954;2023-06-04T08:08:48;21.70;99.90
10344;DHT22;5217;43.960;10.954;2023-06-04T08:11:17;21.70;99.90
10344;DHT22;5217;43.960;10.954;2023-06-04T08:13:46;21.70;99.90
10344;DHT22;5217;43.960;10.954;2023-06-04T08:16:15;21.80;99.90
10344;DHT22;5217;43.960;10.954;2023-06-04T08:18:44;21.80;99.90
10344;DHT22;5217;43.960;10.954;2023-06-04T08:21:12;21.80;99.90
10344;DHT22;5217;43.960;10.954;2023-06-04T08:23:43;21.90;99.90
10344;DHT22;5217;43.960;10.954;2023-06-04T08:26:12;21.90;99.90
10344;DHT22;5217;43.960;10.954;2023-06-04T08:28:40;21.90;99.90
10344;DHT22;5217;43.960;10.954;2023-06-04T08:31:10;21.90;99.90
10344;DHT22;5217;43.960;10.954;2023-06-04T08:33:38;21.90;99.90
10344;DHT22;5217;43.960;10.954;2023-06-04T08:36:07;21.90;99.90
10344;DHT22;5217;43.960;10.954;2023-06-04T08:38:35;21.90;99.90
10344;DHT22;5217;43.960;10.954;2023-06-04T08:41:10;21.90;99.90
10344;DHT22;5217;43.960;10.954;2023-06-04T08:43:40;21.90;99.90
10344;DHT22;5217;43.960;10.954;2023-06-04T08:46:12;22.00;99.90
10344;DHT22;5217;43.960;10.954;2023-06-04T08:48:41;22.00;99.90
10344;DHT22;5217;43.960;10.954;2023-06-04T08:51:11;22.00;99.90
10344;DHT22;5217;43.960;10.954;2023-06-04T08:53:42;22.00;99.90
10344;DHT22;5217;43.960;10.954;2023-06-04T08:56:14;22.00;99.90
10344;DHT22;5217;43.960;10.954;2023-06-04T08:58:44;22.10;99.90
10344;DHT22;5217;43.960;10.954;2023-06-04T09:01:18;22.20;99.90
10344;DHT22;5217;43.960;10.954;2023-06-04T09:03:46;22.20;99.90
10344;DHT22;5217;43.960;10.954;2023-06-04T09:06:15;22.20;99.90
10344;DHT22;5217;43.960;10.954;2023-06-04T09:08:44;22.20;99.90
10344;DHT22;5217;43.960;10.954;2023-06-04T09:11:27;22.20;99.90
10344;DHT22;5217;43.960;10.954;2023-06-04T09:14:01;22.30;99.90
10344;DHT22;5217;43.960;10.954;2023-06-04T09:16:42;22.30;99.90
10344;DHT22;5217;43.960;10.954;2023-06-04T09:19:10;22.30;99.90
10344;DHT22;5217;43.960;10.954;2023-06-04T09:21:52;22.30;99.90
10344;DHT22;5217;43.960;10.954;2023-06-04T09:24:23;22.40;99.90
10344;DHT22;5217;43.960;10.954;2023-06-04T09:26:52;22.40;99.90
10344;DHT22;5217;43.960;10.954;2023-06-04T09:29:20;22.40;99.90
10344;DHT22;5217;43.960;10.954;2023-06-04T09:31:58;22.40;99.90
10344;DHT22;5217;43.960;10.954;2023-06-04T09:34:27;22.50;99.90
10344;DHT22;5217;43.960;10.954;2023-06-04T09:36:57;22.50;99.90
10344;DHT22;5217;43.960;10.954;2023-06-04T09:39:25;22.40;99.90
10344;DHT22;5217;43.960;10.954;2023-06-04T09:41:58;22.50;99.90
10344;DHT22;5217;43.960;10.954;2023-06-04T09:44:29;22.50;99.90
10344;DHT22;5217;43.960;10.954;2023-06-04T09:46:58;22.50;99.90
10344;DHT22;5217;43.960;10.954;2023-06-04T09:49:27;22.60;99.90
10344;DHT22;5217;43.960;10.954;2023-06-04T09:51:56;22.60;99.90
10344;DHT22;5217;43.960;10.954;2023-06-04T09:54:35;22.60;99.90
10344;DHT22;5217;43.960;10.954;2023-06-04T09:57:04;22.60;99.90
10344;DHT22;5217;43.960;10.954;2023-06-04T09:59:37;22.70;99.90
10344;DHT22;5217;43.960;10.954;2023-06-04T10:02:09;22.70;99.90
10344;DHT22;5217;43.960;10.954;2023-06-04T10:04:41;22.70;99.90
10344;DHT22;5217;43.960;10.954;2023-06-04T10:07:11;22.80;99.90
10344;DHT22;5217;43.960;10.954;2023-06-04T10:09:39;22.80;99.90
10344;DHT22;5217;43.960;10.954;2023-06-04T10:12:14;22.80;99.90
10344;DHT22;5217;43.960;10.954;2023-06-04T10:14:47;22.90;99.90
10344;DHT22;5217;43.960;10.954;2023-06-04T10:17:22;22.90;99.90
10344;DHT22;5217;43.960;10.954;2023-06-04T10:19:52;22.90;99.90
10344;DHT22;5217;43.960;10.954;2023-06-04T10:22:21;23.00;99.90
10344;DHT22;5217;43.960;10.954;2023-06-04T10:24:50;23.00;99.90
10344;DHT22;5217;43.960;10.954;2023-06-04T10:27:19;23.00;99.90
10344;DHT22;5217;43.960;10.954;2023-06-04T10:29:50;23.00;99.90
10344;DHT22;5217;43.960;10.954;2023-06-04T10:32:20;23.10;99.90
10344;DHT22;5217;43.960;10.954;2023-06-04T10:34:49;23.10;99.90
10344;DHT22;5217;43.960;10.954;2023-06-04T10:37:21;23.10;99.90
10344;DHT22;5217;43.960;10.954;2023-06-04T10:39:53;23.10;99.90
10344;DHT22;5217;43.960;10.954;2023-06-04T10:42:22;23.20;99.90
10344;DHT22;5217;43.960;10.954;2023-06-04T10:44:52;23.20;99.90
10344;DHT22;5217;43.960;10.954;2023-06-04T10:47:26;23.20;99.90
10344;DHT22;5217;43.960;10.954;2023-06-04T10:50:08;23.20;99.90
10344;DHT22;5217;43.960;10.954;2023-06-04T10:52:36;23.30;99.90
10344;DHT22;5217;43.960;10.954;2023-06-04T10:55:06;23.30;99.90
10344;DHT22;5217;43.960;10.954;2023-06-04T10:57:35;23.20;99.90
10344;DHT22;5217;43.960;10.954;2023-06-04T11:00:06;23.30;99.90
10344;DHT22;5217;43.960;10.954;2023-06-04T11:02:50;23.30;99.90
10344;DHT22;5217;43.960;10.954;2023-06-04T11:05:19;23.30;99.90
10344;DHT22;5217;43.960;10.954;2023-06-04T11:07:49;23.30;99.90
10344;DHT22;5217;43.960;10.954;2023-06-04T11:10:17;23.40;99.90
10344;DHT22;5217;43.960;10.954;2023-06-04T11:12:47;23.40;99.90
10344;DHT22;5217;43.960;10.954;2023-06-04T11:15:17;23.40;99.90
10344;DHT22;5217;43.960;10.954;2023-06-04T11:17:51;23.50;99.90
10344;DHT22;5217;43.960;10.954;2023-06-04T11:20:21;23.50;99.90
10344;DHT22;5217;43.960;10.954;2023-06-04T11:22:54;23.50;99.90
10344;DHT22;5217;43.960;10.954;2023-06-04T11:25:23;23.50;99.90
10344;DHT22;5217;43.960;10.954;2023-06-04T11:27:53;23.50;99.90
10344;DHT22;5217;43.960;10.954;2023-06-04T11:30:22;23.50;99.90
10344;DHT22;5217;43.960;10.954;2023-06-04T11:33:00;23.60;99.90
10344;DHT22;5217;43.960;10.954;2023-06-04T11:35:28;23.60;99.90
10344;DHT22;5217;43.960;10.954;2023-06-04T11:37:58;23.60;99.90
10344;DHT22;5217;43.960;10.954;2023-06-04T11:40:26;23.70;99.90
10344;DHT22;5217;43.960;10.954;2023-06-04T11:42:55;23.80;99.90
10344;DHT22;5217;43.960;10.954;2023-06-04T11:45:24;23.80;99.90
10344;DHT22;5217;43.960;10.954;2023-06-04T11:47:58;23.80;99.40
10344;DHT22;5217;43.960;10.954;2023-06-04T11:50:27;23.80;99.50
10344;DHT22;5217;43.960;10.954;2023-06-04T11:52:56;23.80;99.30
10344;DHT22;5217;43.960;10.954;2023-06-04T11:55:25;23.80;99.10
10344;DHT22;5217;43.960;10.954;2023-06-04T11:57:54;23.90;99.20
10344;DHT22;5217;43.960;10.954;2023-06-04T12:00:22;23.90;99.40
10344;DHT22;5217;43.960;10.954;2023-06-04T12:02:52;24.00;99.80
10344;DHT22;5217;43.960;10.954;2023-06-04T12:05:28;24.00;99.20
10344;DHT22;5217;43.960;10.954;2023-06-04T12:08:04;24.00;98.30
10344;DHT22;5217;43.960;10.954;2023-06-04T12:10:37;24.00;98.40
10344;DHT22;5217;43.960;10.954;2023-06-04T12:13:05;24.10;98.70
10344;DHT22;5217;43.960;10.954;2023-06-04T12:15:34;24.10;98.90
10344;DHT22;5217;43.960;10.954;2023-06-04T12:18:02;24.10;98.80
10344;DHT22;5217;43.960;10.954;2023-06-04T12:20:36;24.20;98.80
10344;DHT22;5217;43.960;10.954;2023-06-04T12:23:05;24.20;98.80
10344;DHT22;5217;43.960;10.954;2023-06-04T12:25:34;24.20;98.90
10344;DHT22;5217;43.960;10.954;2023-06-04T12:28:04;24.20;98.70
10344;DHT22;5217;43.960;10.954;2023-06-04T12:30:36;24.20;98.50
10344;DHT22;5217;43.960;10.954;2023-06-04T12:33:04;24.20;98.60
10344;DHT22;5217;43.960;10.954;2023-06-04T12:35:35;24.30;98.80
10344;DHT22;5217;43.960;10.954;2023-06-04T12:38:04;24.30;98.90
10344;DHT22;5217;43.960;10.954;2023-06-04T12:40:36;24.30;98.90
10344;DHT22;5217;43.960;10.954;2023-06-04T12:43:05;24.30;98.90
10344;DHT22;5217;43.960;10.954;2023-06-04T12:45:34;24.30;99.00
10344;DHT22;5217;43.960;10.954;2023-06-04T12:48:02;24.30;99.40
10344;DHT22;5217;43.960;10.954;2023-06-04T12:50:31;24.30;99.80
10344;DHT22;5217;43.960;10.954;2023-06-04T12:53:01;24.30;99.90
10344;DHT22;5217;43.960;10.954;2023-06-04T12:55:29;24.30;99.90
10344;DHT22;5217;43.960;10.954;2023-06-04T12:57:58;24.30;99.90
10344;DHT22;5217;43.960;10.954;2023-06-04T13:00:26;24.30;99.90
10344;DHT22;5217;43.960;10.954;2023-06-04T13:02:55;24.30;99.90
10344;DHT22;5217;43.960;10.954;2023-06-04T13:05:23;24.30;99.90
10344;DHT22;5217;43.960;10.954;2023-06-04T13:07:52;24.30;99.90
10344;DHT22;5217;43.960;10.954;2023-06-04T13:10:21;24.30;99.90
10344;DHT22;5217;43.960;10.954;2023-06-04T13:12:50;24.30;99.90
10344;DHT22;5217;43.960;10.954;2023-06-04T13:15:18;24.30;99.90
10344;DHT22;5217;43.960;10.954;2023-06-04T13:17:47;24.30;99.90
10344;DHT22;5217;43.960;10.954;2023-06-04T13:20:16;24.30;99.90
10344;DHT22;5217;43.960;10.954;2023-06-04T13:22:44;24.30;99.90
10344;DHT22;5217;43.960;10.954;2023-06-04T13:25:14;24.30;99.90
10344;DHT22;5217;43.960;10.954;2023-06-04T13:27:44;24.30;99.80
10344;DHT22;5217;43.960;10.954;2023-06-04T13:30:13;24.30;99.80
10344;DHT22;5217;43.960;10.954;2023-06-04T13:32:42;24.40;99.80
10344;DHT22;5217;43.960;10.954;2023-06-04T13:35:10;24.40;99.90
10344;DHT22;5217;43.960;10.954;2023-06-04T13:37:39;24.30;99.60
10344;DHT22;5217;43.960;10.954;2023-06-04T13:40:08;24.40;99.40
10344;DHT22;5217;43.960;10.954;2023-06-04T13:42:36;24.30;99.40
10344;DHT22;5217;43.960;10.954;2023-06-04T13:45:07;24.40;99.40
10344;DHT22;5217;43.960;10.954;2023-06-04T13:47:35;24.30;99.60
10344;DHT22;5217;43.960;10.954;2023-06-04T13:50:05;24.30;99.60
10344;DHT22;5217;43.960;10.954;2023-06-04T13:52:33;24.30;99.60
10344;DHT22;5217;43.960;10.954;2023-06-04T13:55:02;24.30;99.50
10344;DHT22;5217;43.960;10.954;2023-06-04T13:57:31;24.30;99.50
10344;DHT22;5217;43.960;10.954;2023-06-04T13:59:59;24.30;99.80
10344;DHT22;5217;43.960;10.954;2023-06-04T14:02:29;24.20;99.80
10344;DHT22;5217;43.960;10.954;2023-06-04T14:04:57;24.30;99.90
10344;DHT22;5217;43.960;10.954;2023-06-04T14:07:26;24.20;99.90
10344;DHT22;5217;43.960;10.954;2023-06-04T14:09:54;24.30;99.90
10344;DHT22;5217;43.960;10.954;2023-06-04T14:12:22;24.20;99.90
10344;DHT22;5217;43.960;10.954;2023-06-04T14:14:51;24.20;99.90
10344;DHT22;5217;43.960;10.954;2023-06-04T14:17:19;24.20;99.90
10344;DHT22;5217;43.960;10.954;2023-06-04T14:19:49;24.20;99.90
10344;DHT22;5217;43.960;10.954;2023-06-04T14:22:18;24.10;99.90
10344;DHT22;5217;43.960;10.954;2023-06-04T14:24:46;24.10;99.90
10344;DHT22;5217;43.960;10.954;2023-06-04T14:27:14;24.00;99.90
10344;DHT22;5217;43.960;10.954;2023-06-04T14:29:43;24.00;99.90
10344;DHT22;5217;43.960;10.954;2023-06-04T14:32:11;24.00;99.90
10344;DHT22;5217;43.960;10.954;2023-06-04T14:34:39;24.00;99.90
10344;DHT22;5217;43.960;10.954;2023-06-04T14:37:09;24.00;99.90
10344;DHT22;5217;43.960;10.954;2023-06-04T14:39:37;24.00;99.90
10344;DHT22;5217;43.960;10.954;2023-06-04T14:42:06;24.00;99.90
10344;DHT22;5217;43.960;10.954;2023-06-04T14:44:34;24.00;99.90
10344;DHT22;5217;43.960;10.954;2023-06-04T14:47:03;24.00;99.90
10344;DHT22;5217;43.960;10.954;2023-06-04T14:49:32;24.00;99.90
10344;DHT22;5217;43.960;10.954;2023-06-04T14:52:00;24.00;99.90
10344;DHT22;5217;43.960;10.954;2023-06-04T14:54:30;24.00;99.90
10344;DHT22;5217;43.960;10.954;2023-06-04T14:56:58;24.00;99.90
10344;DHT22;5217;43.960;10.954;2023-06-04T14:59:28;24.00;99.90
10344;DHT22;5217;43.960;10.954;2023-06-04T15:01:56;24.00;99.90
10344;DHT22;5217;43.960;10.954;2023-06-04T15:04:25;24.00;99.90
10344;DHT22;5217;43.960;10.954;2023-06-04T15:06:53;24.00;99.90
10344;DHT22;5217;43.960;10.954;2023-06-04T15:09:21;24.00;99.90
10344;DHT22;5217;43.960;10.954;2023-06-04T15:11:52;24.00;99.90
10344;DHT22;5217;43.960;10.954;2023-06-04T15:14:20;24.00;99.90
10344;DHT22;5217;43.960;10.954;2023-06-04T15:16:48;24.00;99.90
10344;DHT22;5217;43.960;10.954;2023-06-04T15:19:17;24.00;99.90
10344;DHT22;5217;43.960;10.954;2023-06-04T15:21:45;24.00;99.90
10344;DHT22;5217;43.960;10.954;2023-06-04T15:24:14;24.00;99.90
10344;DHT22;5217;43.960;10.954;2023-06-04T15:26:42;24.00;99.90
10344;DHT22;5217;43.960;10.954;2023-06-04T15:29:12;24.00;99.90
10344;DHT22;5217;43.960;10.954;2023-06-04T15:31:41;24.00;99.90
10344;DHT22;5217;43.960;10.954;2023-06-04T15:34:09;24.00;99.90
10344;DHT22;5217;43.960;10.954;2023-06-04T15:36:38;24.00;99.90
10344;DHT22;5217;43.960;10.954;2023-06-04T15:39:07;24.00;99.90
10344;DHT22;5217;43.960;10.954;2023-06-04T15:41:35;24.00;99.90
10344;DHT22;5217;43.960;10.954;2023-06-04T15:44:04;24.00;99.90